createdAt,value
2023-05-22T00:00:20.316Z,51.14
2023-05-22T00:01:42.953Z,51.07
2023-05-22T00:03:08.628Z,51.20
2023-05-22T00:04:31.482Z,51.34
2023-05-22T00:06:00.421Z,51.39
2023-05-22T00:07:27.559Z,51.39
2023-05-22T00:08:49.540Z,51.32
2023-05-22T00:10:11.580Z,51.14
2023-05-22T00:11:34.952Z,51.49
2023-05-22T00:12:56.143Z,51.59
2023-05-22T00:14:18.227Z,51.48
2023-05-22T00:15:40.564Z,51.63
2023-05-22T00:17:03.683Z,51.75
2023-05-22T00:18:28.181Z,51.68
2023-05-22T00:19:51.668Z,51.71
2023-05-22T00:21:14.001Z,51.91
2023-05-22T00:22:36.776Z,51.90
2023-05-22T00:23:57.777Z,51.99
2023-05-22T00:25:21.323Z,52.12
2023-05-22T00:26:49.896Z,51.96
2023-05-22T00:28:12.130Z,52.22
2023-05-22T00:29:34.767Z,52.08
2023-05-22T00:31:02.066Z,52.06
2023-05-22T00:32:37.930Z,52.36
2023-05-22T00:33:59.290Z,52.34
2023-05-22T00:35:23.125Z,52.04
2023-05-22T00:36:44.778Z,52.45
2023-05-22T00:38:06.991Z,52.00
2023-05-22T00:39:27.940Z,52.05
2023-05-22T00:40:50.182Z,52.21
2023-05-22T00:42:12.719Z,52.33
2023-05-22T00:43:35.345Z,52.62
2023-05-22T00:44:56.236Z,52.56
2023-05-22T00:46:21.692Z,52.50
2023-05-22T00:47:44.425Z,52.61
2023-05-22T00:49:05.689Z,52.34
2023-05-22T00:50:29.632Z,52.67
2023-05-22T00:51:52.884Z,52.82
2023-05-22T00:53:15.756Z,53.05
2023-05-22T00:54:37.378Z,52.94
2023-05-22T00:56:00.249Z,52.74
2023-05-22T00:57:22.264Z,52.51
2023-05-22T00:58:44.467Z,52.65
2023-05-22T01:00:06.752Z,52.95
2023-05-22T01:01:33.789Z,53.11
2023-05-22T01:02:55.661Z,53.21
2023-05-22T01:04:18.736Z,53.25
2023-05-22T01:05:43.154Z,53.50
2023-05-22T01:07:06.267Z,53.30
2023-05-22T01:08:29.923Z,53.36
2023-05-22T01:09:52.706Z,53.32
2023-05-22T01:11:19.494Z,53.38
2023-05-22T01:12:48.518Z,53.63
2023-05-22T01:14:17.340Z,53.72
2023-05-22T01:15:45.613Z,53.88
2023-05-22T01:17:22.912Z,53.72
2023-05-22T01:18:50.034Z,53.72
2023-05-22T01:20:22.298Z,53.93
2023-05-22T01:21:55.281Z,53.84
2023-05-22T01:24:02.708Z,53.65
2023-05-22T01:25:47.689Z,53.92
2023-05-22T01:27:35.360Z,53.69
2023-05-22T01:29:13.014Z,53.88
2023-05-22T01:31:02.021Z,53.89
2023-05-22T01:32:27.328Z,54.06
2023-05-22T01:33:52.782Z,54.17
2023-05-22T01:35:17.866Z,53.97
2023-05-22T01:36:41.632Z,54.07
2023-05-22T01:38:03.948Z,53.99
2023-05-22T01:39:31.982Z,54.11
2023-05-22T01:40:54.294Z,54.01
2023-05-22T01:42:16.882Z,54.06
2023-05-22T01:43:38.281Z,54.02
2023-05-22T01:45:01.696Z,54.24
2023-05-22T01:46:26.657Z,54.07
2023-05-22T01:47:49.137Z,54.11
2023-05-22T01:49:13.405Z,54.08
2023-05-22T01:50:34.656Z,53.98
2023-05-22T01:52:02.648Z,54.15
2023-05-22T01:53:31.612Z,54.14
2023-05-22T01:55:03.741Z,54.15
2023-05-22T01:56:36.733Z,54.08
2023-05-22T01:58:03.913Z,54.30
2023-05-22T01:59:34.348Z,54.53
2023-05-22T02:00:57.693Z,54.43
2023-05-22T02:02:22.821Z,54.48
2023-05-22T02:03:46.690Z,54.52
2023-05-22T02:05:12.658Z,54.41
2023-05-22T02:06:34.101Z,54.34
2023-05-22T02:07:59.809Z,54.25
2023-05-22T02:09:25.346Z,54.11
2023-05-22T02:10:49.428Z,54.30
2023-05-22T02:12:11.290Z,54.37
2023-05-22T02:13:33.833Z,54.55
2023-05-22T02:14:56.656Z,54.67
2023-05-22T02:16:19.514Z,54.53
2023-05-22T02:17:43.143Z,54.64
2023-05-22T02:19:06.366Z,54.80
2023-05-22T02:20:29.092Z,54.68
2023-05-22T02:21:50.135Z,54.81
2023-05-22T02:23:13.636Z,54.91
2023-05-22T02:24:37.045Z,54.79
2023-05-22T02:25:59.188Z,54.75
2023-05-22T02:27:21.300Z,54.69
2023-05-22T02:28:44.080Z,54.69
2023-05-22T02:30:07.835Z,54.48
2023-05-22T02:31:32.141Z,54.69
2023-05-22T02:33:24.979Z,54.97
2023-05-22T02:34:49.217Z,54.82
2023-05-22T02:36:12.998Z,54.62
2023-05-22T02:37:35.422Z,54.78
2023-05-22T02:38:56.865Z,54.84
2023-05-22T02:40:18.948Z,54.81
2023-05-22T02:41:40.007Z,54.84
2023-05-22T02:43:02.316Z,54.98
2023-05-22T02:44:24.545Z,54.81
2023-05-22T02:45:46.801Z,54.70
2023-05-22T02:47:08.279Z,54.88
2023-05-22T02:48:31.958Z,54.89
2023-05-22T02:49:53.147Z,54.88
2023-05-22T02:51:15.362Z,54.93
2023-05-22T02:52:37.343Z,55.11
2023-05-22T02:53:59.395Z,54.72
2023-05-22T02:55:20.595Z,54.63
2023-05-22T02:56:42.980Z,54.58
2023-05-22T02:58:05.001Z,54.55
2023-05-22T02:59:29.017Z,54.53
2023-05-22T03:00:50.477Z,54.53
2023-05-22T03:02:14.017Z,54.69
2023-05-22T03:03:37.496Z,54.78
2023-05-22T03:04:59.827Z,54.64
2023-05-22T03:06:23.448Z,54.47
2023-05-22T03:07:48.342Z,54.36
2023-05-22T03:09:11.619Z,54.45
2023-05-22T03:10:33.051Z,54.45
2023-05-22T03:11:55.524Z,54.68
2023-05-22T03:13:16.392Z,54.53
2023-05-22T03:14:38.570Z,54.52
2023-05-22T03:16:00.249Z,54.67
2023-05-22T03:17:23.144Z,54.56
2023-05-22T03:18:47.203Z,54.79
2023-05-22T03:20:10.952Z,54.65
2023-05-22T03:21:32.692Z,54.55
2023-05-22T03:22:54.854Z,54.63
2023-05-22T03:24:17.604Z,54.28
2023-05-22T03:25:39.560Z,54.48
2023-05-22T03:27:01.827Z,54.49
2023-05-22T03:28:36.713Z,54.51
2023-05-22T03:29:59.133Z,54.54
2023-05-22T03:31:20.212Z,54.43
2023-05-22T03:32:58.985Z,54.42
2023-05-22T03:34:23.874Z,54.24
2023-05-22T03:35:45.778Z,54.08
2023-05-22T03:37:09.170Z,54.23
2023-05-22T03:38:31.570Z,54.18
2023-05-22T03:39:53.113Z,54.02
2023-05-22T03:41:23.365Z,54.03
2023-05-22T03:42:46.058Z,53.97
2023-05-22T03:44:07.298Z,54.10
2023-05-22T03:45:29.892Z,53.74
2023-05-22T03:46:59.920Z,53.94
2023-05-22T03:48:23.202Z,54.05
2023-05-22T03:49:48.962Z,54.05
2023-05-22T03:51:11.387Z,53.89
2023-05-22T03:52:33.061Z,53.77
2023-05-22T03:53:55.215Z,53.61
2023-05-22T03:55:17.909Z,53.56
2023-05-22T03:56:40.420Z,53.66
2023-05-22T03:58:03.359Z,53.46
2023-05-22T03:59:24.996Z,53.34
2023-05-22T04:00:47.618Z,53.35
2023-05-22T04:02:13.288Z,53.34
2023-05-22T04:03:35.629Z,53.42
2023-05-22T04:04:59.351Z,53.10
2023-05-22T04:06:24.406Z,52.95
2023-05-22T04:07:46.828Z,52.77
2023-05-22T04:09:08.565Z,52.57
2023-05-22T04:10:30.992Z,52.59
2023-05-22T04:11:53.416Z,52.32
2023-05-22T04:13:19.069Z,51.99
2023-05-22T04:14:41.042Z,52.09
2023-05-22T04:16:02.306Z,51.95
2023-05-22T04:17:26.883Z,51.90
2023-05-22T04:18:49.137Z,51.49
2023-05-22T04:20:16.933Z,51.28
2023-05-22T04:21:39.448Z,51.24
2023-05-22T04:23:01.203Z,50.81
2023-05-22T04:24:23.641Z,50.61
2023-05-22T04:25:48.011Z,50.74
2023-05-22T04:27:15.464Z,50.63
2023-05-22T04:28:36.823Z,50.26
2023-05-22T04:30:00.224Z,50.04
2023-05-22T04:31:23.284Z,50.07
2023-05-22T04:32:45.573Z,49.84
2023-05-22T04:34:08.121Z,49.36
2023-05-22T04:36:13.148Z,48.67
2023-05-22T04:37:37.158Z,48.13
2023-05-22T04:39:00.548Z,48.03
2023-05-22T04:40:23.228Z,47.61
2023-05-22T04:41:46.121Z,47.23
2023-05-22T04:43:07.828Z,46.92
2023-05-22T04:44:30.705Z,46.11
2023-05-22T04:45:54.280Z,45.68
2023-05-22T04:47:16.512Z,45.55
2023-05-22T04:48:38.848Z,45.23
2023-05-22T04:50:02.744Z,44.90
2023-05-22T04:51:24.117Z,44.38
2023-05-22T04:52:48.495Z,43.75
2023-05-22T04:54:09.660Z,43.58
2023-05-22T04:55:34.064Z,43.31
2023-05-22T04:56:56.444Z,42.49
2023-05-22T04:58:18.222Z,42.00
2023-05-22T04:59:41.486Z,42.01
2023-05-22T05:01:05.249Z,41.42
2023-05-22T05:02:27.617Z,40.64
2023-05-22T05:03:50.152Z,40.34
2023-05-22T05:05:12.234Z,39.96
2023-05-22T05:06:36.011Z,39.10
2023-05-22T05:08:02.913Z,38.58
2023-05-22T05:09:24.622Z,38.29
2023-05-22T05:10:46.864Z,38.00
2023-05-22T05:12:14.742Z,37.30
2023-05-22T05:13:37.585Z,37.18
2023-05-22T05:14:58.445Z,36.96
2023-05-22T05:16:20.844Z,36.33
2023-05-22T05:17:43.035Z,36.49
2023-05-22T05:19:05.372Z,36.13
2023-05-22T05:20:34.799Z,35.56
2023-05-22T05:21:57.436Z,35.37
2023-05-22T05:23:22.510Z,35.37
2023-05-22T05:24:44.478Z,35.00
2023-05-22T05:26:07.405Z,34.46
2023-05-22T05:27:29.779Z,34.52
2023-05-22T05:28:54.873Z,33.98
2023-05-22T05:30:20.544Z,33.56
2023-05-22T05:32:01.603Z,33.14
2023-05-22T05:33:50.615Z,33.00
2023-05-22T05:35:25.103Z,32.47
2023-05-22T05:37:03.099Z,32.30
2023-05-22T05:38:28.107Z,32.16
2023-05-22T05:39:50.952Z,31.95
2023-05-22T05:41:13.397Z,31.70
2023-05-22T05:42:44.489Z,31.05
2023-05-22T05:44:08.266Z,30.77
2023-05-22T05:45:31.038Z,30.64
2023-05-22T05:46:54.975Z,30.29
2023-05-22T05:48:17.576Z,30.01
2023-05-22T05:49:42.684Z,29.67
2023-05-22T05:51:05.229Z,29.56
2023-05-22T05:52:36.423Z,29.52
2023-05-22T05:54:06.843Z,29.04
2023-05-22T05:55:31.185Z,29.12
2023-05-22T05:56:54.668Z,28.94
2023-05-22T05:58:19.734Z,28.72
2023-05-22T06:00:00.483Z,28.74
2023-05-22T06:01:40.077Z,28.63
2023-05-22T06:03:08.622Z,28.28
2023-05-22T06:04:48.920Z,27.92
2023-05-22T06:06:14.344Z,27.77
2023-05-22T06:08:11.569Z,27.10
2023-05-22T06:09:37.793Z,26.86
2023-05-22T06:11:06.429Z,26.52
2023-05-22T06:12:54.976Z,26.04
2023-05-22T06:14:17.357Z,25.97
2023-05-22T06:15:39.729Z,25.37
2023-05-22T06:17:02.264Z,24.52
2023-05-22T06:18:26.004Z,24.29
2023-05-22T06:19:48.973Z,23.82
2023-05-22T06:21:14.096Z,23.74
2023-05-22T06:22:35.901Z,23.92
2023-05-22T06:23:58.927Z,23.66
2023-05-22T06:25:23.909Z,23.72
2023-05-22T06:26:48.365Z,23.21
2023-05-22T06:28:10.691Z,23.29
2023-05-22T06:29:33.333Z,23.30
2023-05-22T06:30:57.296Z,23.20
2023-05-22T06:32:20.734Z,23.00
2023-05-22T06:33:44.535Z,22.83
2023-05-22T06:35:08.021Z,22.65
2023-05-22T06:36:30.335Z,22.96
2023-05-22T06:37:54.855Z,22.13
2023-05-22T06:39:17.273Z,21.95
2023-05-22T06:41:16.257Z,22.22
2023-05-22T06:42:41.637Z,21.70
2023-05-22T06:44:22.685Z,21.45
2023-05-22T06:45:49.556Z,21.43
2023-05-22T06:47:28.379Z,21.54
2023-05-22T06:48:50.800Z,21.05
2023-05-22T06:50:57.472Z,20.60
2023-05-22T06:52:21.635Z,20.27
2023-05-22T06:53:46.511Z,19.75
2023-05-22T06:55:14.098Z,19.16
2023-05-22T06:56:51.279Z,18.91
2023-05-22T06:58:15.457Z,18.28
2023-05-22T06:59:38.051Z,18.56
2023-05-22T07:01:00.445Z,17.90
2023-05-22T07:02:30.455Z,17.78
2023-05-22T07:04:18.465Z,17.46
2023-05-22T07:06:02.420Z,17.36
2023-05-22T07:07:23.365Z,16.58
2023-05-22T07:08:45.691Z,16.18
2023-05-22T07:10:09.358Z,15.92
2023-05-22T07:11:31.785Z,15.27
2023-05-22T07:12:55.486Z,14.95
2023-05-22T07:14:18.518Z,15.11
2023-05-22T07:15:41.261Z,14.68
2023-05-22T07:17:03.978Z,14.26
2023-05-22T07:18:31.480Z,13.90
2023-05-22T07:19:54.290Z,13.75
2023-05-22T07:21:17.151Z,12.82
2023-05-22T07:22:39.991Z,12.41
2023-05-22T07:24:08.127Z,12.21
2023-05-22T07:25:41.929Z,12.38
2023-05-22T07:27:04.580Z,12.54
2023-05-22T07:28:30.089Z,12.53
2023-05-22T07:30:01.374Z,12.56
2023-05-22T07:31:24.925Z,12.18
2023-05-22T07:32:50.668Z,11.70
2023-05-22T07:34:13.551Z,11.64
2023-05-22T07:35:36.144Z,11.41
2023-05-22T07:37:01.531Z,11.26
2023-05-22T07:38:25.461Z,11.18
2023-05-22T07:39:55.805Z,10.65
2023-05-22T07:41:18.730Z,10.42
2023-05-22T07:42:41.900Z,10.57
2023-05-22T07:44:08.333Z,11.07
2023-05-22T07:45:32.993Z,10.51
2023-05-22T07:46:59.691Z,10.36
2023-05-22T07:48:25.983Z,9.84
2023-05-22T07:49:48.832Z,9.72
2023-05-22T07:51:11.163Z,9.52
2023-05-22T07:52:35.752Z,9.18
2023-05-22T07:55:26.282Z,8.59
2023-05-22T07:56:48.825Z,8.15
2023-05-22T07:58:11.723Z,7.61
2023-05-22T07:59:38.649Z,7.25
2023-05-22T08:08:06.748Z,6.54
2023-05-22T08:09:28.836Z,6.40
2023-05-22T08:11:02.894Z,5.54
2023-05-22T08:12:26.005Z,5.41
2023-05-22T08:13:46.979Z,5.04
2023-05-22T08:15:11.183Z,5.13
2023-05-22T08:16:32.852Z,5.13
2023-05-22T08:17:55.166Z,4.47
2023-05-22T08:19:17.358Z,4.25
2023-05-22T08:20:40.089Z,3.94
2023-05-22T08:22:02.804Z,4.07
2023-05-22T08:23:25.389Z,3.88
2023-05-22T08:24:47.752Z,3.80
2023-05-22T08:26:10.177Z,3.43
2023-05-22T08:27:32.453Z,3.15
2023-05-22T08:28:54.669Z,3.41
2023-05-22T08:30:18.233Z,3.45
2023-05-22T08:31:40.568Z,3.29
2023-05-22T08:33:05.638Z,3.02
2023-05-22T08:34:28.621Z,2.80
2023-05-22T08:35:51.356Z,3.00
2023-05-22T08:37:18.889Z,2.27
2023-05-22T08:38:44.223Z,2.40
2023-05-22T08:40:12.621Z,1.94
2023-05-22T08:41:34.941Z,1.56
2023-05-22T08:42:58.038Z,1.27
2023-05-22T08:44:21.157Z,1.19
2023-05-22T08:45:47.359Z,0.96
2023-05-22T08:47:14.283Z,0.85
2023-05-22T08:48:36.939Z,0.66
2023-05-22T08:50:02.913Z,0.74
2023-05-22T08:51:58.347Z,1.14
2023-05-22T08:53:24.617Z,0.65
2023-05-22T08:54:53.311Z,0.65
2023-05-22T08:56:16.138Z,0.75
2023-05-22T08:57:39.218Z,0.49
2023-05-22T08:59:02.001Z,0.14
2023-05-22T09:00:24.671Z,0.44
2023-05-22T09:01:49.379Z,0.00
2023-05-22T09:03:14.071Z,0.00
2023-05-22T09:04:45.244Z,0.00
2023-05-22T09:06:11.329Z,0.00
2023-05-22T09:07:34.054Z,0.00
2023-05-22T09:08:56.736Z,0.00
2023-05-22T09:10:18.799Z,0.00
2023-05-22T09:12:11.989Z,0.00
2023-05-22T09:13:34.341Z,0.00
2023-05-22T09:15:08.341Z,0.00
2023-05-22T09:16:33.374Z,0.00
2023-05-22T09:17:59.804Z,0.00
2023-05-22T09:19:22.487Z,0.00
2023-05-22T09:20:45.098Z,0.00
2023-05-22T09:22:07.634Z,0.00
2023-05-22T09:23:30.137Z,0.00
2023-05-22T09:24:52.664Z,0.00
2023-05-22T09:26:15.001Z,0.00
2023-05-22T09:27:37.596Z,0.00
2023-05-22T09:29:01.377Z,0.00
2023-05-22T09:31:18.084Z,0.00
2023-05-22T09:32:43.168Z,0.00
2023-05-22T09:34:08.324Z,0.00
2023-05-22T09:35:58.100Z,0.00
2023-05-22T09:37:24.270Z,0.00
2023-05-22T09:42:17.253Z,0.00
2023-05-22T09:43:39.565Z,0.00
2023-05-22T09:45:15.256Z,0.00
2023-05-22T09:46:44.718Z,0.00
2023-05-22T09:48:08.406Z,0.00
2023-05-22T09:49:32.164Z,0.00
2023-05-22T09:50:56.129Z,0.00
2023-05-22T09:52:21.030Z,0.00
2023-05-22T09:53:44.737Z,0.00
2023-05-22T09:55:08.944Z,0.00
2023-05-22T09:56:39.804Z,0.00
2023-05-22T09:58:05.948Z,0.06
2023-05-22T09:59:31.632Z,0.00
2023-05-22T10:00:54.682Z,0.00
2023-05-22T10:02:17.255Z,0.00
2023-05-22T10:03:42.334Z,0.00
2023-05-22T10:05:08.282Z,0.00
2023-05-22T10:06:35.532Z,0.00
2023-05-22T10:08:04.154Z,0.00
2023-05-22T10:09:34.676Z,0.00
2023-05-22T10:10:58.762Z,0.00
2023-05-22T10:12:24.939Z,0.40
2023-05-22T10:13:48.746Z,0.18
2023-05-22T10:15:12.472Z,0.41
2023-05-22T10:16:38.463Z,0.74
2023-05-22T10:18:03.329Z,1.31
2023-05-22T10:19:42.829Z,0.95
2023-05-22T10:21:09.546Z,1.56
2023-05-22T10:22:33.649Z,1.46
2023-05-22T10:23:57.134Z,1.69
2023-05-22T10:25:19.903Z,2.20
2023-05-22T10:26:44.015Z,2.17
2023-05-22T10:28:07.678Z,2.03
2023-05-22T10:29:39.795Z,2.61
2023-05-22T10:31:09.080Z,2.42
2023-05-22T10:32:57.773Z,2.52
2023-05-22T10:34:28.153Z,3.13
2023-05-22T10:35:55.539Z,2.85
2023-05-22T10:37:33.036Z,3.47
2023-05-22T10:39:05.568Z,2.84
2023-05-22T10:40:31.715Z,3.21
2023-05-22T10:41:53.795Z,3.77
2023-05-22T10:43:15.763Z,3.64
2023-05-22T10:44:37.614Z,3.53
2023-05-22T10:46:04.283Z,4.08
2023-05-22T10:47:27.660Z,4.19
2023-05-22T10:48:51.026Z,4.99
2023-05-22T10:51:18.106Z,5.10
2023-05-22T10:52:42.021Z,5.71
2023-05-22T10:54:05.755Z,6.39
2023-05-22T10:55:29.731Z,6.55
2023-05-22T10:57:11.180Z,6.67
2023-05-22T10:58:59.319Z,7.00
2023-05-22T11:00:30.532Z,7.58
2023-05-22T11:02:08.096Z,7.67
2023-05-22T11:03:31.261Z,8.07
2023-05-22T11:04:56.458Z,8.25
2023-05-22T11:06:33.902Z,9.16
2023-05-22T11:08:12.138Z,9.24
2023-05-22T11:09:35.227Z,9.60
2023-05-22T11:10:59.314Z,9.95
2023-05-22T11:12:28.763Z,10.17
2023-05-22T11:14:03.219Z,10.29
2023-05-22T11:15:32.548Z,10.58
2023-05-22T11:17:01.707Z,10.89
2023-05-22T11:18:23.673Z,11.37
2023-05-22T11:19:50.555Z,11.55
2023-05-22T11:21:13.703Z,11.45
2023-05-22T11:22:37.287Z,11.81
2023-05-22T11:24:02.788Z,12.31
2023-05-22T11:25:27.554Z,12.13
2023-05-22T11:27:03.318Z,12.40
2023-05-22T11:28:25.730Z,12.52
2023-05-22T11:29:49.891Z,12.87
2023-05-22T11:31:12.928Z,13.15
2023-05-22T11:32:37.719Z,13.46
2023-05-22T11:34:00.401Z,13.79
2023-05-22T11:35:23.718Z,13.76
2023-05-22T11:36:46.074Z,14.01
2023-05-22T11:38:08.877Z,14.22
2023-05-22T11:39:34.249Z,14.54
2023-05-22T11:40:58.872Z,14.59
2023-05-22T11:42:24.515Z,14.69
2023-05-22T11:43:46.506Z,15.15
2023-05-22T11:45:10.169Z,15.38
2023-05-22T11:46:33.958Z,15.13
2023-05-22T11:47:56.077Z,15.19
2023-05-22T11:49:18.405Z,15.79
2023-05-22T11:50:46.858Z,15.78
2023-05-22T11:52:10.788Z,16.24
2023-05-22T11:53:34.245Z,16.31
2023-05-22T11:54:57.637Z,15.87
2023-05-22T11:56:23.293Z,16.42
2023-05-22T11:57:47.390Z,16.36
2023-05-22T11:59:16.949Z,16.62
2023-05-22T12:04:50.204Z,17.76
2023-05-22T12:13:28.671Z,18.01
2023-05-22T12:14:51.037Z,18.40
2023-05-22T12:16:30.197Z,18.46
2023-05-22T12:17:56.774Z,18.55
2023-05-22T12:19:19.374Z,18.64
2023-05-22T12:20:44.877Z,18.64
2023-05-22T12:22:07.557Z,19.08
2023-05-22T12:23:52.102Z,18.76
2023-05-22T12:25:18.366Z,19.03
2023-05-22T12:26:40.743Z,19.42
2023-05-22T12:28:05.208Z,19.44
2023-05-22T12:29:29.413Z,19.44
2023-05-22T12:30:54.430Z,19.66
2023-05-22T12:32:18.402Z,19.87
2023-05-22T12:33:42.103Z,20.17
2023-05-22T12:35:04.059Z,19.85
2023-05-22T12:36:35.039Z,19.98
2023-05-22T12:37:59.328Z,19.87
2023-05-22T12:39:22.700Z,20.26
2023-05-22T12:40:47.465Z,20.27
2023-05-22T12:42:09.796Z,20.02
2023-05-22T12:43:32.264Z,19.81
2023-05-22T12:44:57.031Z,19.71
2023-05-22T12:46:19.161Z,19.47
2023-05-22T12:47:40.477Z,19.42
2023-05-22T12:49:04.506Z,19.52
2023-05-22T12:50:29.439Z,19.68
2023-05-22T12:51:51.794Z,19.47
2023-05-22T12:53:16.539Z,19.35
2023-05-22T12:54:39.969Z,19.29
2023-05-22T12:56:02.242Z,19.47
2023-05-22T12:57:24.708Z,18.76
2023-05-22T12:58:46.764Z,19.13
2023-05-22T13:00:11.425Z,19.11
2023-05-22T13:01:53.806Z,19.14
2023-05-22T13:05:24.665Z,18.89
2023-05-22T13:06:46.685Z,18.98
2023-05-22T13:08:18.301Z,19.01
2023-05-22T13:09:41.246Z,18.80
2023-05-22T13:11:03.862Z,19.13
2023-05-22T13:13:00.409Z,18.85
2023-05-22T13:14:26.902Z,19.02
2023-05-22T13:19:04.279Z,18.67
2023-05-22T13:21:12.726Z,18.99
2023-05-22T13:22:39.269Z,18.56
2023-05-22T13:24:12.568Z,18.76
2023-05-22T13:25:48.064Z,18.93
2023-05-22T13:27:33.572Z,18.71
2023-05-22T13:28:56.331Z,18.72
2023-05-22T13:30:18.401Z,18.84
2023-05-22T13:31:40.989Z,18.58
2023-05-22T13:35:51.993Z,19.56
2023-05-22T13:37:24.409Z,19.12
2023-05-22T13:38:46.517Z,19.52
2023-05-22T13:40:11.200Z,19.68
2023-05-22T13:41:33.719Z,19.48
2023-05-22T13:43:09.468Z,19.74
2023-05-22T13:44:32.392Z,19.68
2023-05-22T13:46:16.901Z,19.57
2023-05-22T13:47:42.354Z,19.63
2023-05-22T13:49:04.900Z,19.46
2023-05-22T13:50:30.162Z,19.58
2023-05-22T13:51:52.425Z,19.71
2023-05-22T13:53:15.884Z,19.79
2023-05-22T13:54:36.625Z,19.79
2023-05-22T13:55:58.603Z,20.20
2023-05-22T13:57:20.538Z,19.79
2023-05-22T13:58:42.818Z,19.81
2023-05-22T14:00:08.509Z,20.26
2023-05-22T14:01:33.795Z,20.12
2023-05-22T14:02:56.236Z,20.00
2023-05-22T14:04:18.649Z,19.94
2023-05-22T14:05:41.202Z,20.22
2023-05-22T14:07:06.460Z,20.45
2023-05-22T14:08:30.376Z,20.42
2023-05-22T14:09:52.751Z,20.48
2023-05-22T14:11:15.083Z,20.47
2023-05-22T14:12:37.363Z,20.72
2023-05-22T14:13:59.513Z,20.72
2023-05-22T14:15:21.720Z,21.05
2023-05-22T14:16:47.348Z,20.94
2023-05-22T14:18:09.468Z,21.09
2023-05-22T14:19:32.174Z,21.22
2023-05-22T14:20:54.546Z,21.01
2023-05-22T14:22:17.185Z,21.14
2023-05-22T14:23:40.921Z,21.21
2023-05-22T14:25:03.339Z,21.12
2023-05-22T14:26:25.574Z,21.38
2023-05-22T14:27:47.759Z,21.37
2023-05-22T14:29:09.659Z,21.29
2023-05-22T14:30:31.669Z,21.36
2023-05-22T14:31:56.591Z,21.52
2023-05-22T14:33:18.784Z,21.82
2023-05-22T14:34:40.824Z,21.51
2023-05-22T14:36:02.870Z,21.44
2023-05-22T14:37:25.222Z,21.70
2023-05-22T14:38:48.982Z,21.72
2023-05-22T14:40:12.173Z,21.70
2023-05-22T14:41:34.271Z,21.78
2023-05-22T14:42:56.398Z,21.58
2023-05-22T14:44:19.647Z,21.55
2023-05-22T14:45:44.744Z,21.80
2023-05-22T14:47:07.274Z,21.66
2023-05-22T14:48:29.607Z,21.98
2023-05-22T14:49:52.592Z,21.83
2023-05-22T14:51:19.429Z,21.83
2023-05-22T14:52:44.446Z,22.33
2023-05-22T14:54:08.288Z,21.95
2023-05-22T14:55:30.022Z,21.76
2023-05-22T14:56:52.088Z,21.88
2023-05-22T14:58:14.850Z,22.10
2023-05-22T14:59:38.795Z,22.33
2023-05-22T15:01:01.044Z,22.28
2023-05-22T15:02:24.844Z,21.97
2023-05-22T15:03:47.502Z,22.19
2023-05-22T15:05:10.836Z,22.21
2023-05-22T15:06:33.631Z,22.05
2023-05-22T15:07:58.635Z,22.11
2023-05-22T15:09:22.535Z,22.06
2023-05-22T15:10:44.797Z,22.09
2023-05-22T15:12:07.629Z,22.31
2023-05-22T15:13:32.369Z,22.03
2023-05-22T15:14:57.209Z,22.15
2023-05-22T15:16:20.067Z,22.11
2023-05-22T15:17:43.168Z,22.45
2023-05-22T15:19:05.299Z,22.64
2023-05-22T15:20:27.519Z,22.22
2023-05-22T15:21:50.186Z,22.80
2023-05-22T15:23:12.223Z,22.39
2023-05-22T15:24:36.107Z,22.61
2023-05-22T15:25:58.538Z,22.49
2023-05-22T15:27:20.698Z,22.42
2023-05-22T15:28:42.787Z,22.54
2023-05-22T15:30:06.824Z,22.68
2023-05-22T15:31:30.360Z,22.77
2023-05-22T15:32:52.670Z,22.70
2023-05-22T15:34:15.329Z,22.58
2023-05-22T15:35:37.904Z,22.96
2023-05-22T15:37:00.495Z,23.02
2023-05-22T15:38:23.912Z,22.95
2023-05-22T15:39:48.136Z,22.93
2023-05-22T15:41:10.676Z,23.00
2023-05-22T15:42:35.993Z,23.08
2023-05-22T15:43:58.659Z,22.91
2023-05-22T15:45:22.061Z,23.07
2023-05-22T15:46:45.508Z,22.83
2023-05-22T15:48:10.927Z,22.85
2023-05-22T15:49:33.331Z,22.95
2023-05-22T15:50:55.887Z,22.94
2023-05-22T15:52:22.651Z,22.93
2023-05-22T15:53:47.574Z,22.65
2023-05-22T15:55:11.536Z,22.56
2023-05-22T15:56:37.203Z,22.77
2023-05-22T15:58:02.799Z,22.63
2023-05-22T15:59:25.019Z,22.58
2023-05-22T16:00:47.123Z,22.89
2023-05-22T16:02:09.632Z,22.72
2023-05-22T16:03:34.404Z,22.81
2023-05-22T16:04:56.619Z,22.80
2023-05-22T16:06:23.390Z,22.73
2023-05-22T16:07:48.580Z,22.80
2023-05-22T16:09:11.257Z,23.07
2023-05-22T16:10:35.406Z,22.97
2023-05-22T16:11:57.650Z,23.04
2023-05-22T16:13:20.433Z,22.98
2023-05-22T16:14:42.415Z,22.83
2023-05-22T16:16:06.088Z,23.01
2023-05-22T16:17:28.567Z,22.73
2023-05-22T16:18:50.699Z,23.09
2023-05-22T16:20:13.152Z,23.08
2023-05-22T16:21:35.115Z,23.15
2023-05-22T16:22:57.638Z,23.15
2023-05-22T16:24:20.668Z,23.32
2023-05-22T16:25:44.831Z,23.43
2023-05-22T16:27:10.580Z,23.32
2023-05-22T16:28:32.275Z,23.57
2023-05-22T16:29:54.804Z,23.66
2023-05-22T16:31:19.588Z,23.28
2023-05-22T16:32:42.407Z,23.48
2023-05-22T16:34:06.229Z,23.27
2023-05-22T16:35:29.879Z,23.24
2023-05-22T16:36:52.734Z,23.39
2023-05-22T16:38:15.112Z,23.53
2023-05-22T16:39:39.946Z,23.41
2023-05-22T16:41:06.246Z,23.68
2023-05-22T16:42:29.183Z,23.73
2023-05-22T16:43:51.923Z,23.77
2023-05-22T16:45:14.220Z,23.55
2023-05-22T16:46:36.547Z,23.61
2023-05-22T16:47:59.212Z,23.88
2023-05-22T16:49:24.279Z,24.02
2023-05-22T16:50:46.951Z,24.18
2023-05-22T16:52:09.496Z,24.11
2023-05-22T16:53:36.677Z,24.43
2023-05-22T16:55:01.353Z,24.20
2023-05-22T16:56:30.004Z,24.55
2023-05-22T16:57:52.415Z,24.71
2023-05-22T16:59:14.683Z,24.77
2023-05-22T17:00:37.966Z,24.71
2023-05-22T17:02:01.080Z,24.54
2023-05-22T17:03:23.753Z,24.25
2023-05-22T17:04:48.946Z,24.69
2023-05-22T17:06:11.152Z,24.87
2023-05-22T17:07:33.734Z,24.94
2023-05-22T17:08:56.694Z,25.30
2023-05-22T17:10:19.793Z,25.30
2023-05-22T17:11:48.038Z,25.23
2023-05-22T17:13:21.126Z,25.21
2023-05-22T17:14:43.455Z,25.56
2023-05-22T17:16:05.980Z,25.41
2023-05-22T17:17:27.522Z,25.59
2023-05-22T17:18:50.061Z,25.73
2023-05-22T17:20:13.053Z,25.92
2023-05-22T17:21:35.946Z,25.72
2023-05-22T17:22:58.689Z,25.95
2023-05-22T17:24:28.245Z,25.73
2023-05-22T17:25:51.507Z,25.75
2023-05-22T17:27:27.777Z,25.75
2023-05-22T17:29:01.279Z,26.19
2023-05-22T17:30:27.213Z,26.50
2023-05-22T17:31:52.876Z,26.22
2023-05-22T17:33:15.341Z,26.16
2023-05-22T17:34:47.455Z,26.50
2023-05-22T17:36:09.973Z,26.67
2023-05-22T17:37:32.071Z,26.80
2023-05-22T17:38:54.584Z,26.58
2023-05-22T17:40:17.316Z,26.87
2023-05-22T17:41:40.432Z,27.19
2023-05-22T17:43:04.528Z,27.40
2023-05-22T17:44:29.355Z,27.29
2023-05-22T17:45:51.699Z,26.97
2023-05-22T17:47:14.652Z,27.04
2023-05-22T17:48:37.219Z,27.16
2023-05-22T17:49:59.729Z,27.39
2023-05-22T17:51:22.702Z,27.58
2023-05-22T17:52:47.801Z,27.32
2023-05-22T17:54:10.236Z,27.48
2023-05-22T17:55:32.689Z,27.41
2023-05-22T17:56:55.983Z,28.02
2023-05-22T17:58:19.976Z,27.88
2023-05-22T17:59:42.240Z,28.08
2023-05-22T18:01:04.387Z,28.35
2023-05-22T18:02:28.508Z,28.75
2023-05-22T18:03:53.582Z,28.55
2023-05-22T18:05:16.258Z,28.48
2023-05-22T18:06:38.478Z,28.33
2023-05-22T18:08:05.758Z,28.59
2023-05-22T18:09:31.238Z,28.63
2023-05-22T18:10:58.507Z,29.06
2023-05-22T18:13:47.673Z,29.30
2023-05-22T18:15:12.274Z,29.55
2023-05-22T18:16:34.708Z,29.42
2023-05-22T18:17:56.965Z,29.33
2023-05-22T18:19:19.647Z,29.07
2023-05-22T18:20:42.085Z,29.51
2023-05-22T18:22:04.948Z,29.62
2023-05-22T18:23:27.071Z,29.45
2023-05-22T18:24:49.451Z,29.36
2023-05-22T18:26:11.604Z,29.68
2023-05-22T18:27:34.195Z,30.03
2023-05-22T18:28:57.666Z,30.34
2023-05-22T18:30:19.959Z,30.10
2023-05-22T18:31:41.947Z,30.43
2023-05-22T18:33:09.524Z,30.37
2023-05-22T18:34:32.389Z,30.60
2023-05-22T18:35:54.720Z,31.02
2023-05-22T18:37:16.714Z,30.76
2023-05-22T18:38:39.115Z,31.06
2023-05-22T18:40:07.704Z,31.17
2023-05-22T18:41:30.206Z,31.24
2023-05-22T18:42:52.239Z,31.36
2023-05-22T18:44:16.906Z,31.25
2023-05-22T18:45:39.896Z,31.41
2023-05-22T18:47:22.306Z,31.77
2023-05-22T18:48:47.283Z,31.94
2023-05-22T18:50:10.585Z,31.79
2023-05-22T18:51:32.904Z,32.17
2023-05-22T18:52:54.883Z,32.14
2023-05-22T18:54:17.537Z,32.13
2023-05-22T18:55:40.006Z,32.31
2023-05-22T18:57:01.149Z,32.18
2023-05-22T18:58:23.376Z,32.60